sensor_id;sensor_type;location;lat;lon;timestamp;pressure;altitude;pressure_sealevel;temperature;humidity
66681;BME280;53575;51.366;12.350;2023-08-17T00:02:10;100537.19;;;21.27;100.00
66681;BME280;53575;51.366;12.350;2023-08-17T00:04:35;100531.00;;;21.26;100.00
66681;BME280;53575;51.366;12.350;2023-08-17T00:07:00;100530.94;;;21.28;100.00
66681;BME280;53575;51.366;12.350;2023-08-17T00:09:26;100527.50;;;21.26;100.00
66681;BME280;53575;51.366;12.350;2023-08-17T00:11:51;100526.69;;;21.24;100.00
66681;BME280;53575;51.366;12.350;2023-08-17T00:14:16;100531.06;;;21.25;100.00
66681;BME280;53575;51.366;12.350;2023-08-17T00:16:42;100524.88;;;21.24;100.00
66681;BME280;53575;51.366;12.350;2023-08-17T00:19:07;100533.59;;;21.28;100.00
66681;BME280;53575;51.366;12.350;2023-08-17T00:21:32;100531.22;;;21.22;100.00
66681;BME280;53575;51.366;12.350;2023-08-17T00:23:57;100528.84;;;21.15;100.00
66681;BME280;53575;51.366;12.350;2023-08-17T00:26:23;100519.88;;;21.18;100.00
66681;BME280;53575;51.366;12.350;2023-08-17T00:28:48;100517.94;;;21.40;100.00
66681;BME280;53575;51.366;12.350;2023-08-17T00:31:13;100508.72;;;21.48;100.00
66681;BME280;53575;51.366;12.350;2023-08-17T00:33:39;100513.34;;;21.44;100.00
66681;BME280;53575;51.366;12.350;2023-08-17T00:36:04;100504.50;;;21.44;100.00
66681;BME280;53575;51.366;12.350;2023-08-17T00:38:29;100502.78;;;21.42;100.00
66681;BME280;53575;51.366;12.350;2023-08-17T00:40:54;100496.84;;;21.37;100.00
66681;BME280;53575;51.366;12.350;2023-08-17T00:43:20;100495.66;;;21.43;100.00
66681;BME280;53575;51.366;12.350;2023-08-17T00:45:45;100488.63;;;21.42;100.00
66681;BME280;53575;51.366;12.350;2023-08-17T00:48:11;100484.53;;;21.35;100.00
66681;BME280;53575;51.366;12.350;2023-08-17T00:50:37;100479.00;;;21.39;100.00
66681;BME280;53575;51.366;12.350;2023-08-17T00:53:03;100480.19;;;21.34;100.00
66681;BME280;53575;51.366;12.350;2023-08-17T00:55:29;100489.13;;;21.31;100.00
66681;BME280;53575;51.366;12.350;2023-08-17T00:57:55;100490.34;;;21.24;100.00
66681;BME280;53575;51.366;12.350;2023-08-17T01:00:20;100489.25;;;21.28;100.00
66681;BME280;53575;51.366;12.350;2023-08-17T01:02:47;100497.94;;;21.13;100.00
66681;BME280;53575;51.366;12.350;2023-08-17T01:05:12;100497.81;;;21.16;100.00
66681;BME280;53575;51.366;12.350;2023-08-17T01:07:38;100506.38;;;21.23;100.00
66681;BME280;53575;51.366;12.350;2023-08-17T01:10:03;100501.91;;;21.23;100.00
66681;BME280;53575;51.366;12.350;2023-08-17T01:12:31;100509.97;;;21.22;100.00
66681;BME280;53575;51.366;12.350;2023-08-17T01:17:40;100501.91;;;21.23;100.00
66681;BME280;53575;51.366;12.350;2023-08-17T01:20:07;100500.56;;;21.14;100.00
66681;BME280;53575;51.366;12.350;2023-08-17T01:22:34;100496.81;;;21.00;100.00
66681;BME280;53575;51.366;12.350;2023-08-17T01:25:00;100486.06;;;21.03;100.00
66681;BME280;53575;51.366;12.350;2023-08-17T01:27:29;100493.66;;;21.10;100.00
66681;BME280;53575;51.366;12.350;2023-08-17T01:29:54;100485.47;;;21.15;100.00
66681;BME280;53575;51.366;12.350;2023-08-17T01:32:36;100476.91;;;21.08;100.00
66681;BME280;53575;51.366;12.350;2023-08-17T01:35:04;100483.31;;;21.04;100.00
66681;BME280;53575;51.366;12.350;2023-08-17T01:37:34;100485.09;;;21.04;100.00
66681;BME280;53575;51.366;12.350;2023-08-17T01:40:02;100482.00;;;20.94;100.00
66681;BME280;53575;51.366;12.350;2023-08-17T01:42:30;100495.72;;;20.85;100.00
66681;BME280;53575;51.366;12.350;2023-08-17T01:44:55;100487.81;;;20.83;100.00
66681;BME280;53575;51.366;12.350;2023-08-17T01:47:21;100491.50;;;20.81;100.00
66681;BME280;53575;51.366;12.350;2023-08-17T01:49:46;100489.81;;;20.78;100.00
66681;BME280;53575;51.366;12.350;2023-08-17T01:52:12;100496.06;;;20.77;100.00
66681;BME280;53575;51.366;12.350;2023-08-17T01:54:37;100508.13;;;20.65;100.00
66681;BME280;53575;51.366;12.350;2023-08-17T01:57:02;100519.59;;;20.66;100.00
66681;BME280;53575;51.366;12.350;2023-08-17T01:59:27;100541.69;;;20.66;100.00
66681;BME280;53575;51.366;12.350;2023-08-17T02:01:53;100572.44;;;20.72;100.00
66681;BME280;53575;51.366;12.350;2023-08-17T02:04:18;100595.81;;;20.84;100.00
66681;BME280;53575;51.366;12.350;2023-08-17T02:06:43;100603.91;;;20.81;100.00
66681;BME280;53575;51.366;12.350;2023-08-17T02:09:09;100604.56;;;20.86;100.00
66681;BME280;53575;51.366;12.350;2023-08-17T02:11:34;100592.22;;;20.85;100.00
66681;BME280;53575;51.366;12.350;2023-08-17T02:13:59;100594.78;;;20.87;100.00
66681;BME280;53575;51.366;12.350;2023-08-17T02:16:24;100603.47;;;20.90;100.00
66681;BME280;53575;51.366;12.350;2023-08-17T02:18:50;100598.72;;;20.99;100.00
66681;BME280;53575;51.366;12.350;2023-08-17T02:21:15;100614.72;;;20.97;100.00
66681;BME280;53575;51.366;12.350;2023-08-17T02:23:40;100606.41;;;21.05;100.00
66681;BME280;53575;51.366;12.350;2023-08-17T02:26:05;100614.50;;;21.02;100.00
66681;BME280;53575;51.366;12.350;2023-08-17T02:28:31;100634.25;;;20.96;100.00
66681;BME280;53575;51.366;12.350;2023-08-17T02:30:56;100648.13;;;20.82;100.00
66681;BME280;53575;51.366;12.350;2023-08-17T02:33:22;100629.66;;;20.59;100.00
66681;BME280;53575;51.366;12.350;2023-08-17T02:35:48;100636.84;;;20.57;100.00
66681;BME280;53575;51.366;12.350;2023-08-17T02:38:14;100637.78;;;20.34;100.00
66681;BME280;53575;51.366;12.350;2023-08-17T02:40:39;100638.44;;;20.17;100.00
66681;BME280;53575;51.366;12.350;2023-08-17T02:43:04;100638.75;;;20.09;100.00
66681;BME280;53575;51.366;12.350;2023-08-17T02:45:30;100655.72;;;20.05;100.00
66681;BME280;53575;51.366;12.350;2023-08-17T02:47:55;100653.75;;;19.88;100.00
66681;BME280;53575;51.366;12.350;2023-08-17T02:50:20;100652.63;;;19.94;100.00
66681;BME280;53575;51.366;12.350;2023-08-17T02:52:45;100646.13;;;19.79;100.00
66681;BME280;53575;51.366;12.350;2023-08-17T02:55:11;100646.09;;;19.81;100.00
66681;BME280;53575;51.366;12.350;2023-08-17T02:57:36;100650.34;;;19.61;100.00
66681;BME280;53575;51.366;12.350;2023-08-17T03:00:01;100652.50;;;19.27;100.00
66681;BME280;53575;51.366;12.350;2023-08-17T03:02:27;100635.94;;;18.45;100.00
66681;BME280;53575;51.366;12.350;2023-08-17T03:04:52;100629.69;;;18.21;100.00
66681;BME280;53575;51.366;12.350;2023-08-17T03:07:17;100627.72;;;17.99;100.00
66681;BME280;53575;51.366;12.350;2023-08-17T03:09:42;100630.66;;;17.90;100.00
66681;BME280;53575;51.366;12.350;2023-08-17T03:12:08;100621.97;;;17.85;100.00
66681;BME280;53575;51.366;12.350;2023-08-17T03:14:33;100614.72;;;17.92;100.00
66681;BME280;53575;51.366;12.350;2023-08-17T03:16:58;100604.16;;;17.92;100.00
66681;BME280;53575;51.366;12.350;2023-08-17T03:19:23;100613.44;;;17.77;100.00
66681;BME280;53575;51.366;12.350;2023-08-17T03:21:49;100608.00;;;17.82;100.00
66681;BME280;53575;51.366;12.350;2023-08-17T03:24:14;100611.72;;;17.76;100.00
66681;BME280;53575;51.366;12.350;2023-08-17T03:26:39;100610.44;;;17.88;100.00
66681;BME280;53575;51.366;12.350;2023-08-17T03:29:04;100608.72;;;17.87;100.00
66681;BME280;53575;51.366;12.350;2023-08-17T03:31:30;100595.28;;;17.93;100.00
66681;BME280;53575;51.366;12.350;2023-08-17T03:33:55;100578.72;;;17.88;100.00
66681;BME280;53575;51.366;12.350;2023-08-17T03:36:20;100560.53;;;17.78;100.00
66681;BME280;53575;51.366;12.350;2023-08-17T03:38:46;100559.91;;;17.69;100.00
66681;BME280;53575;51.366;12.350;2023-08-17T03:41:11;100557.88;;;17.78;100.00
66681;BME280;53575;51.366;12.350;2023-08-17T03:43:36;100562.09;;;17.84;100.00
66681;BME280;53575;51.366;12.350;2023-08-17T03:46:01;100553.13;;;17.90;100.00
66681;BME280;53575;51.366;12.350;2023-08-17T03:48:27;100541.66;;;17.89;100.00
66681;BME280;53575;51.366;12.350;2023-08-17T03:50:54;100551.44;;;17.87;100.00
66681;BME280;53575;51.366;12.350;2023-08-17T03:53:20;100554.84;;;17.91;100.00
66681;BME280;53575;51.366;12.350;2023-08-17T03:55:48;100558.28;;;17.93;100.00
66681;BME280;53575;51.366;12.350;2023-08-17T03:58:14;100557.31;;;17.95;100.00
66681;BME280;53575;51.366;12.350;2023-08-17T04:00:40;100569.69;;;17.95;100.00
66681;BME280;53575;51.366;12.350;2023-08-17T04:03:05;100576.66;;;17.97;100.00
66681;BME280;53575;51.366;12.350;2023-08-17T04:05:31;100598.78;;;17.95;100.00
66681;BME280;53575;51.366;12.350;2023-08-17T04:07:56;100630.25;;;18.02;100.00
66681;BME280;53575;51.366;12.350;2023-08-17T04:10:26;100672.81;;;17.95;100.00
66681;BME280;53575;51.366;12.350;2023-08-17T04:12:51;100687.28;;;17.83;100.00
66681;BME280;53575;51.366;12.350;2023-08-17T04:15:17;100697.06;;;17.80;100.00
66681;BME280;53575;51.366;12.350;2023-08-17T04:17:42;100693.50;;;17.81;100.00
66681;BME280;53575;51.366;12.350;2023-08-17T04:20:08;100682.75;;;17.87;100.00
66681;BME280;53575;51.366;12.350;2023-08-17T04:22:34;100641.69;;;18.03;100.00
66681;BME280;53575;51.366;12.350;2023-08-17T04:24:59;100631.44;;;17.94;100.00
66681;BME280;53575;51.366;12.350;2023-08-17T04:27:24;100627.84;;;17.95;100.00
66681;BME280;53575;51.366;12.350;2023-08-17T04:29:49;100625.16;;;17.96;100.00
66681;BME280;53575;51.366;12.350;2023-08-17T04:32:15;100622.31;;;18.02;100.00
66681;BME280;53575;51.366;12.350;2023-08-17T04:34:41;100631.03;;;18.06;100.00
66681;BME280;53575;51.366;12.350;2023-08-17T04:37:06;100635.38;;;18.09;100.00
66681;BME280;53575;51.366;12.350;2023-08-17T04:39:31;100623.13;;;18.05;100.00
66681;BME280;53575;51.366;12.350;2023-08-17T04:41:57;100609.56;;;18.15;100.00
66681;BME280;53575;51.366;12.350;2023-08-17T04:44:23;100610.38;;;18.17;100.00
66681;BME280;53575;51.366;12.350;2023-08-17T04:46:48;100606.06;;;18.15;100.00
66681;BME280;53575;51.366;12.350;2023-08-17T04:49:13;100603.31;;;18.18;100.00
66681;BME280;53575;51.366;12.350;2023-08-17T04:51:38;100587.19;;;18.25;100.00
66681;BME280;53575;51.366;12.350;2023-08-17T04:54:04;100573.97;;;18.25;100.00
66681;BME280;53575;51.366;12.350;2023-08-17T04:56:29;100569.44;;;18.29;100.00
66681;BME280;53575;51.366;12.350;2023-08-17T04:58:54;100555.28;;;18.30;100.00
66681;BME280;53575;51.366;12.350;2023-08-17T05:01:19;100552.47;;;18.35;100.00
66681;BME280;53575;51.366;12.350;2023-08-17T05:03:45;100553.75;;;18.23;100.00
66681;BME280;53575;51.366;12.350;2023-08-17T05:06:10;100549.13;;;18.30;100.00
66681;BME280;53575;51.366;12.350;2023-08-17T05:08:36;100546.41;;;18.31;100.00
66681;BME280;53575;51.366;12.350;2023-08-17T05:11:02;100548.00;;;18.37;100.00
66681;BME280;53575;51.366;12.350;2023-08-17T05:13:27;100537.25;;;18.41;100.00
66681;BME280;53575;51.366;12.350;2023-08-17T05:15:52;100529.50;;;18.37;100.00
66681;BME280;53575;51.366;12.350;2023-08-17T05:18:17;100525.75;;;18.42;100.00
66681;BME280;53575;51.366;12.350;2023-08-17T05:20:43;100520.31;;;18.47;100.00
66681;BME280;53575;51.366;12.350;2023-08-17T05:23:08;100516.50;;;18.54;100.00
66681;BME280;53575;51.366;12.350;2023-08-17T05:25:33;100520.66;;;18.61;100.00
66681;BME280;53575;51.366;12.350;2023-08-17T05:27:58;100514.75;;;18.55;100.00
66681;BME280;53575;51.366;12.350;2023-08-17T05:30:24;100514.22;;;18.68;100.00
66681;BME280;53575;51.366;12.350;2023-08-17T05:32:49;100508.00;;;18.71;100.00
66681;BME280;53575;51.366;12.350;2023-08-17T05:35:14;100500.84;;;18.73;100.00
66681;BME280;53575;51.366;12.350;2023-08-17T05:37:39;100497.31;;;18.74;100.00
66681;BME280;53575;51.366;12.350;2023-08-17T05:40:05;100502.47;;;18.77;100.00
66681;BME280;53575;51.366;12.350;2023-08-17T05:42:30;100511.13;;;18.82;100.00
66681;BME280;53575;51.366;12.350;2023-08-17T05:44:56;100497.94;;;18.81;100.00
66681;BME280;53575;51.366;12.350;2023-08-17T05:47:21;100509.28;;;18.84;100.00
66681;BME280;53575;51.366;12.350;2023-08-17T05:49:46;100503.94;;;18.86;100.00
66681;BME280;53575;51.366;12.350;2023-08-17T05:52:11;100504.03;;;18.83;100.00
66681;BME280;53575;51.366;12.350;2023-08-17T05:54:37;100505.53;;;18.90;100.00
66681;BME280;53575;51.366;12.350;2023-08-17T05:57:02;100516.78;;;18.96;100.00
66681;BME280;53575;51.366;12.350;2023-08-17T05:59:28;100506.88;;;19.02;100.00
66681;BME280;53575;51.366;12.350;2023-08-17T06:01:53;100506.03;;;18.99;100.00
66681;BME280;53575;51.366;12.350;2023-08-17T06:04:19;100501.59;;;19.00;100.00
66681;BME280;53575;51.366;12.350;2023-08-17T06:06:45;100494.47;;;19.02;100.00
66681;BME280;53575;51.366;12.350;2023-08-17T06:09:11;100495.75;;;18.92;100.00
66681;BME280;53575;51.366;12.350;2023-08-17T06:11:36;100492.66;;;19.04;100.00
66681;BME280;53575;51.366;12.350;2023-08-17T06:14:01;100490.03;;;19.03;100.00
66681;BME280;53575;51.366;12.350;2023-08-17T06:16:27;100480.13;;;19.08;100.00
66681;BME280;53575;51.366;12.350;2023-08-17T06:18:52;100478.13;;;19.14;100.00
66681;BME280;53575;51.366;12.350;2023-08-17T06:21:17;100485.00;;;19.18;100.00
66681;BME280;53575;51.366;12.350;2023-08-17T06:23:42;100479.69;;;19.20;100.00
66681;BME280;53575;51.366;12.350;2023-08-17T06:26:08;100488.28;;;19.25;100.00
66681;BME280;53575;51.366;12.350;2023-08-17T06:28:33;100482.03;;;19.28;100.00
66681;BME280;53575;51.366;12.350;2023-08-17T06:30:58;100482.69;;;19.33;100.00
66681;BME280;53575;51.366;12.350;2023-08-17T06:33:23;100487.81;;;19.37;100.00
66681;BME280;53575;51.366;12.350;2023-08-17T06:35:49;100484.97;;;19.42;100.00
66681;BME280;53575;51.366;12.350;2023-08-17T06:38:14;100493.00;;;19.40;100.00
66681;BME280;53575;51.366;12.350;2023-08-17T06:40:39;100495.34;;;19.48;100.00
66681;BME280;53575;51.366;12.350;2023-08-17T06:43:05;100493.81;;;19.42;100.00
66681;BME280;53575;51.366;12.350;2023-08-17T06:45:33;100495.56;;;19.42;100.00
66681;BME280;53575;51.366;12.350;2023-08-17T06:47:58;100496.94;;;19.52;100.00
66681;BME280;53575;51.366;12.350;2023-08-17T06:50:24;100495.41;;;19.46;100.00
66681;BME280;53575;51.366;12.350;2023-08-17T06:52:49;100502.31;;;19.51;100.00
66681;BME280;53575;51.366;12.350;2023-08-17T06:55:15;100506.78;;;19.48;100.00
66681;BME280;53575;51.366;12.350;2023-08-17T06:57:41;100516.97;;;19.59;100.00
66681;BME280;53575;51.366;12.350;2023-08-17T07:00:07;100512.38;;;19.64;100.00
66681;BME280;53575;51.366;12.350;2023-08-17T07:02:32;100525.28;;;19.74;100.00
66681;BME280;53575;51.366;12.350;2023-08-17T07:04:58;100527.53;;;19.83;100.00
66681;BME280;53575;51.366;12.350;2023-08-17T07:07:23;100531.44;;;19.96;100.00
66681;BME280;53575;51.366;12.350;2023-08-17T07:09:49;100551.06;;;20.12;100.00
66681;BME280;53575;51.366;12.350;2023-08-17T07:12:14;100562.97;;;20.24;100.00
66681;BME280;53575;51.366;12.350;2023-08-17T07:14:39;100562.75;;;20.29;100.00
66681;BME280;53575;51.366;12.350;2023-08-17T07:17:05;100560.81;;;20.34;100.00
66681;BME280;53575;51.366;12.350;2023-08-17T07:19:30;100559.53;;;20.42;100.00
66681;BME280;53575;51.366;12.350;2023-08-17T07:21:55;100552.84;;;20.54;100.00
66681;BME280;53575;51.366;12.350;2023-08-17T07:24:20;100545.69;;;20.56;100.00
66681;BME280;53575;51.366;12.350;2023-08-17T07:26:46;100544.47;;;20.63;100.00
66681;BME280;53575;51.366;12.350;2023-08-17T07:29:11;100539.84;;;20.68;100.00
66681;BME280;53575;51.366;12.350;2023-08-17T07:31:36;100530.22;;;20.66;100.00
66681;BME280;53575;51.366;12.350;2023-08-17T07:34:03;100534.13;;;20.78;100.00
66681;BME280;53575;51.366;12.350;2023-08-17T07:36:28;100532.53;;;20.74;100.00
66681;BME280;53575;51.366;12.350;2023-08-17T07:38:53;100536.34;;;20.87;100.00
66681;BME280;53575;51.366;12.350;2023-08-17T07:41:18;100535.44;;;20.88;100.00
66681;BME280;53575;51.366;12.350;2023-08-17T07:43:44;100535.44;;;20.88;100.00
66681;BME280;53575;51.366;12.350;2023-08-17T07:46:09;100537.03;;;20.72;100.00
66681;BME280;53575;51.366;12.350;2023-08-17T07:48:34;100535.41;;;20.69;100.00
66681;BME280;53575;51.366;12.350;2023-08-17T07:50:59;100543.69;;;20.61;100.00
66681;BME280;53575;51.366;12.350;2023-08-17T07:53:25;100547.13;;;20.63;100.00
66681;BME280;53575;51.366;12.350;2023-08-17T07:55:50;100553.59;;;20.58;100.00
66681;BME280;53575;51.366;12.350;2023-08-17T07:58:16;100550.25;;;20.53;100.00
66681;BME280;53575;51.366;12.350;2023-08-17T08:00:41;100547.91;;;20.45;100.00
66681;BME280;53575;51.366;12.350;2023-08-17T08:03:06;100542.00;;;20.38;100.00
66681;BME280;53575;51.366;12.350;2023-08-17T08:05:32;100540.44;;;20.34;100.00
66681;BME280;53575;51.366;12.350;2023-08-17T08:07:57;100538.63;;;20.35;100.00
66681;BME280;53575;51.366;12.350;2023-08-17T08:10:22;100539.28;;;20.40;100.00
66681;BME280;53575;51.366;12.350;2023-08-17T08:12:47;100533.84;;;20.43;100.00
66681;BME280;53575;51.366;12.350;2023-08-17T08:15:13;100532.34;;;20.58;100.00
66681;BME280;53575;51.366;12.350;2023-08-17T08:17:38;100533.53;;;20.71;100.00
66681;BME280;53575;51.366;12.350;2023-08-17T08:20:03;100535.41;;;20.69;100.00
66681;BME280;53575;51.366;12.350;2023-08-17T08:22:29;100536.50;;;20.63;100.00
66681;BME280;53575;51.366;12.350;2023-08-17T08:24:54;100541.81;;;20.63;100.00
66681;BME280;53575;51.366;12.350;2023-08-17T08:27:19;100545.34;;;20.64;100.00
66681;BME280;53575;51.366;12.350;2023-08-17T08:29:45;100545.16;;;20.68;100.00
66681;BME280;53575;51.366;12.350;2023-08-17T08:32:10;100545.34;;;20.84;100.00
66681;BME280;53575;51.366;12.350;2023-08-17T08:34:35;100539.88;;;20.87;100.00
66681;BME280;53575;51.366;12.350;2023-08-17T08:37:01;100537.41;;;21.03;100.00
66681;BME280;53575;51.366;12.350;2023-08-17T08:39:26;100530.50;;;21.18;100.00
66681;BME280;53575;51.366;12.350;2023-08-17T08:41:52;100540.72;;;21.46;100.00
66681;BME280;53575;51.366;12.350;2023-08-17T08:44:18;100538.41;;;21.57;100.00
66681;BME280;53575;51.366;12.350;2023-08-17T08:46:44;100542.19;;;21.71;100.00
66681;BME280;53575;51.366;12.350;2023-08-17T08:49:10;100542.19;;;21.71;100.00
66681;BME280;53575;51.366;12.350;2023-08-17T08:51:35;100533.31;;;21.89;100.00
66681;BME280;53575;51.366;12.350;2023-08-17T08:54:02;100529.31;;;21.98;100.00
66681;BME280;53575;51.366;12.350;2023-08-17T08:56:30;100539.19;;;22.13;100.00
66681;BME280;53575;51.366;12.350;2023-08-17T08:58:56;100537.53;;;22.29;100.00
66681;BME280;53575;51.366;12.350;2023-08-17T09:01:23;100528.81;;;22.60;100.00
66681;BME280;53575;51.366;12.350;2023-08-17T09:03:49;100540.75;;;22.86;100.00
66681;BME280;53575;51.366;12.350;2023-08-17T09:06:15;100527.91;;;22.95;100.00
66681;BME280;53575;51.366;12.350;2023-08-17T09:08:41;100524.91;;;23.01;100.00
66681;BME280;53575;51.366;12.350;2023-08-17T09:11:06;100528.72;;;23.13;100.00
66681;BME280;53575;51.366;12.350;2023-08-17T09:13:31;100532.69;;;23.37;100.00
66681;BME280;53575;51.366;12.350;2023-08-17T09:15:57;100539.31;;;23.46;100.00
66681;BME280;53575;51.366;12.350;2023-08-17T09:18:23;100533.66;;;23.68;100.00
66681;BME280;53575;51.366;12.350;2023-08-17T09:20:51;100537.97;;;23.70;100.00
66681;BME280;53575;51.366;12.350;2023-08-17T09:23:21;100534.66;;;23.81;100.00
66681;BME280;53575;51.366;12.350;2023-08-17T09:25:46;100534.47;;;23.84;100.00
66681;BME280;53575;51.366;12.350;2023-08-17T09:28:12;100536.63;;;23.93;100.00
66681;BME280;53575;51.366;12.350;2023-08-17T09:33:14;100535.78;;;23.93;100.00
66681;BME280;53575;51.366;12.350;2023-08-17T09:35:41;100537.97;;;24.16;100.00
66681;BME280;53575;51.366;12.350;2023-08-17T09:38:06;100529.38;;;24.25;100.00
66681;BME280;53575;51.366;12.350;2023-08-17T09:40:32;100528.16;;;24.47;100.00
66681;BME280;53575;51.366;12.350;2023-08-17T09:42:57;100524.91;;;24.56;100.00
66681;BME280;53575;51.366;12.350;2023-08-17T09:45:23;100520.88;;;24.19;100.00
66681;BME280;53575;51.366;12.350;2023-08-17T09:47:49;100521.94;;;24.16;100.00
66681;BME280;53575;51.366;12.350;2023-08-17T09:50:14;100507.13;;;23.80;100.00
66681;BME280;53575;51.366;12.350;2023-08-17T09:52:39;100512.00;;;23.88;100.00
66681;BME280;53575;51.366;12.350;2023-08-17T09:55:06;100515.50;;;24.04;100.00
66681;BME280;53575;51.366;12.350;2023-08-17T09:57:32;100519.28;;;24.16;100.00
66681;BME280;53575;51.366;12.350;2023-08-17T09:59:58;100519.09;;;24.19;100.00
66681;BME280;53575;51.366;12.350;2023-08-17T10:02:23;100520.63;;;24.38;100.00
66681;BME280;53575;51.366;12.350;2023-08-17T10:04:49;100509.25;;;24.50;100.00
66681;BME280;53575;51.366;12.350;2023-08-17T10:07:15;100511.66;;;24.54;100.00
66681;BME280;53575;51.366;12.350;2023-08-17T10:09:43;100504.09;;;24.47;100.00
66681;BME280;53575;51.366;12.350;2023-08-17T10:12:11;100504.09;;;24.61;100.00
66681;BME280;53575;51.366;12.350;2023-08-17T10:14:42;100510.22;;;24.77;100.00
66681;BME280;53575;51.366;12.350;2023-08-17T10:17:11;100499.34;;;24.80;100.00
66681;BME280;53575;51.366;12.350;2023-08-17T10:19:43;100506.41;;;24.82;100.00
66681;BME280;53575;51.366;12.350;2023-08-17T10:22:17;100506.38;;;24.53;100.00
66681;BME280;53575;51.366;12.350;2023-08-17T10:24:43;100502.00;;;24.52;100.00
66681;BME280;53575;51.366;12.350;2023-08-17T10:27:09;100497.63;;;24.51;100.00
66681;BME280;53575;51.366;12.350;2023-08-17T10:29:35;100501.03;;;24.53;100.00
66681;BME280;53575;51.366;12.350;2023-08-17T10:32:01;100502.19;;;24.49;100.00
66681;BME280;53575;51.366;12.350;2023-08-17T10:34:27;100498.19;;;24.56;100.00
66681;BME280;53575;51.366;12.350;2023-08-17T10:36:53;100494.56;;;24.57;100.00
66681;BME280;53575;51.366;12.350;2023-08-17T10:39:23;100493.31;;;24.63;100.00
66681;BME280;53575;51.366;12.350;2023-08-17T10:41:50;100493.03;;;24.67;100.00
66681;BME280;53575;51.366;12.350;2023-08-17T10:44:17;100488.25;;;24.87;100.00
66681;BME280;53575;51.366;12.350;2023-08-17T10:46:42;100481.69;;;24.92;98.85
66681;BME280;53575;51.366;12.350;2023-08-17T10:49:26;100483.66;;;25.03;99.94
66681;BME280;53575;51.366;12.350;2023-08-17T10:52:04;100485.88;;;25.11;97.27
66681;BME280;53575;51.366;12.350;2023-08-17T10:54:39;100481.66;;;25.21;96.12
66681;BME280;53575;51.366;12.350;2023-08-17T11:00:04;100474.06;;;25.42;93.45
66681;BME280;53575;51.366;12.350;2023-08-17T11:02:31;100482.25;;;25.12;93.74
66681;BME280;53575;51.366;12.350;2023-08-17T11:04:57;100478.44;;;25.16;94.43
66681;BME280;53575;51.366;12.350;2023-08-17T11:07:22;100475.34;;;25.22;95.10
66681;BME280;53575;51.366;12.350;2023-08-17T11:09:48;100471.81;;;25.48;92.61
66681;BME280;53575;51.366;12.350;2023-08-17T11:12:24;100473.41;;;25.38;93.89
66681;BME280;53575;51.366;12.350;2023-08-17T11:14:49;100476.00;;;25.52;92.64
66681;BME280;53575;51.366;12.350;2023-08-17T11:17:15;100474.91;;;25.69;91.89
66681;BME280;53575;51.366;12.350;2023-08-17T11:19:40;100474.78;;;25.85;90.25
66681;BME280;53575;51.366;12.350;2023-08-17T11:22:05;100477.13;;;25.90;90.14
66681;BME280;53575;51.366;12.350;2023-08-17T11:24:31;100480.28;;;26.09;86.50
66681;BME280;53575;51.366;12.350;2023-08-17T11:26:56;100478.38;;;26.11;87.86
66681;BME280;53575;51.366;12.350;2023-08-17T11:29:21;100471.09;;;26.26;86.73
66681;BME280;53575;51.366;12.350;2023-08-17T11:31:49;100471.56;;;26.45;85.83
66681;BME280;53575;51.366;12.350;2023-08-17T11:34:15;100471.13;;;26.52;86.04
66681;BME280;53575;51.366;12.350;2023-08-17T11:36:40;100477.03;;;26.69;83.72
66681;BME280;53575;51.366;12.350;2023-08-17T11:39:05;100464.47;;;26.44;84.57
66681;BME280;53575;51.366;12.350;2023-08-17T11:41:32;100469.22;;;26.54;84.75
66681;BME280;53575;51.366;12.350;2023-08-17T11:43:57;100472.00;;;26.65;82.42
66681;BME280;53575;51.366;12.350;2023-08-17T11:46:24;100470.13;;;26.78;80.18
66681;BME280;53575;51.366;12.350;2023-08-17T11:48:50;100459.06;;;26.95;81.43
66681;BME280;53575;51.366;12.350;2023-08-17T11:51:27;100453.78;;;27.19;80.62
66681;BME280;53575;51.366;12.350;2023-08-17T11:53:53;100449.97;;;27.35;79.53
66681;BME280;53575;51.366;12.350;2023-08-17T11:56:18;100449.84;;;27.60;79.41
66681;BME280;53575;51.366;12.350;2023-08-17T11:58:43;100449.44;;;27.78;80.09
66681;BME280;53575;51.366;12.350;2023-08-17T12:01:10;100456.25;;;27.94;80.19
66681;BME280;53575;51.366;12.350;2023-08-17T12:03:36;100448.53;;;27.66;79.94
66681;BME280;53575;51.366;12.350;2023-08-17T12:06:01;100451.34;;;27.64;78.95
66681;BME280;53575;51.366;12.350;2023-08-17T12:08:27;100453.78;;;27.67;80.17
66681;BME280;53575;51.366;12.350;2023-08-17T12:10:52;100455.50;;;27.92;78.15
66681;BME280;53575;51.366;12.350;2023-08-17T12:13:17;100444.56;;;28.18;76.82
66681;BME280;53575;51.366;12.350;2023-08-17T12:15:42;100451.09;;;28.38;76.11
66681;BME280;53575;51.366;12.350;2023-08-17T12:18:08;100438.50;;;28.38;76.11
66681;BME280;53575;51.366;12.350;2023-08-17T12:20:33;100445.44;;;28.18;76.03
66681;BME280;53575;51.366;12.350;2023-08-17T12:23:02;100450.19;;;28.26;76.57
66681;BME280;53575;51.366;12.350;2023-08-17T12:25:27;100440.81;;;28.32;75.14
66681;BME280;53575;51.366;12.350;2023-08-17T12:27:53;100434.38;;;27.99;76.17
66681;BME280;53575;51.366;12.350;2023-08-17T12:33:09;100424.09;;;27.82;77.60
66681;BME280;53575;51.366;12.350;2023-08-17T12:35:35;100424.53;;;28.11;76.11